createdAt,value
2023-04-02T00:02:15.751Z,-1.13
2023-04-02T00:04:44.082Z,-1.14
2023-04-02T00:07:31.118Z,-1.16
2023-04-02T00:09:59.473Z,-1.15
2023-04-02T00:12:29.131Z,-1.16
2023-04-02T00:14:58.306Z,-1.16
2023-04-02T00:17:26.874Z,-1.15
2023-04-02T00:19:58.466Z,-1.14
2023-04-02T00:22:28.201Z,-1.17
2023-04-02T00:24:57.144Z,-1.20
2023-04-02T00:27:25.896Z,-1.19
2023-04-02T00:29:57.020Z,-1.17
2023-04-02T00:32:27.028Z,-1.18
2023-04-02T00:34:55.947Z,-1.15
2023-04-02T00:37:28.301Z,-1.16
2023-04-02T00:40:00.219Z,-1.16
2023-04-02T00:42:30.724Z,-1.16
2023-04-02T00:45:01.288Z,-1.19
2023-04-02T00:47:33.895Z,-1.20
2023-04-02T00:50:05.529Z,-1.17
2023-04-02T00:52:35.245Z,-1.21
2023-04-02T00:55:06.443Z,-1.23
2023-04-02T00:57:35.271Z,-1.22
2023-04-02T01:00:18.276Z,-1.22
2023-04-02T01:03:06.752Z,-1.23
2023-04-02T01:05:36.686Z,-1.26
2023-04-02T01:08:09.378Z,-1.24
2023-04-02T01:10:48.658Z,-1.29
2023-04-02T01:13:23.157Z,-1.24
2023-04-02T01:15:56.987Z,-1.28
2023-04-02T01:18:33.467Z,-1.28
2023-04-02T01:21:08.721Z,-1.32
2023-04-02T01:23:39.606Z,-1.32
2023-04-02T01:26:14.157Z,-1.34
2023-04-02T01:29:03.358Z,-1.32
2023-04-02T01:31:35.732Z,-1.33
2023-04-02T01:34:04.897Z,-1.32
2023-04-02T01:36:38.170Z,-1.30
2023-04-02T01:39:12.480Z,-1.23
2023-04-02T01:41:44.749Z,-1.29
2023-04-02T01:44:16.497Z,-1.36
2023-04-02T01:46:49.724Z,-1.38
2023-04-02T01:49:20.397Z,-1.45
2023-04-02T01:51:53.290Z,-1.46
2023-04-02T01:54:23.296Z,-1.56
2023-04-02T01:56:52.749Z,-1.54
2023-04-02T01:59:22.541Z,-1.55
2023-04-02T02:02:01.530Z,-1.58
2023-04-02T02:04:31.401Z,-1.60
2023-04-02T02:07:00.951Z,-1.61
2023-04-02T02:09:32.203Z,-1.64
2023-04-02T02:12:02.933Z,-1.66
2023-04-02T02:14:32.290Z,-1.62
2023-04-02T02:17:04.505Z,-1.69
2023-04-02T02:19:34.769Z,-1.69
2023-04-02T02:22:08.296Z,-1.69
2023-04-02T02:24:37.490Z,-1.79
2023-04-02T02:27:10.611Z,-1.85
2023-04-02T02:29:41.165Z,-1.87
2023-04-02T02:32:12.283Z,-1.98
2023-04-02T02:34:44.491Z,-1.91
2023-04-02T02:37:16.297Z,-2.05
2023-04-02T02:39:45.897Z,-2.02
2023-04-02T02:42:17.285Z,-2.09
2023-04-02T02:44:48.375Z,-2.17
2023-04-02T02:47:20.071Z,-2.11
2023-04-02T02:49:50.888Z,-2.14
2023-04-02T02:52:21.767Z,-2.15
2023-04-02T02:55:12.152Z,-2.22
2023-04-02T02:57:57.407Z,-2.30
2023-04-02T03:00:29.250Z,-2.26
2023-04-02T03:03:01.307Z,-2.37
2023-04-02T03:05:32.631Z,-2.39
2023-04-02T03:08:10.702Z,-2.45
2023-04-02T03:10:43.522Z,-2.47
2023-04-02T03:13:20.103Z,-2.50
2023-04-02T03:15:52.729Z,-2.45
2023-04-02T03:18:31.121Z,-2.52
2023-04-02T03:21:01.962Z,-2.53
2023-04-02T03:23:32.906Z,-2.49
2023-04-02T03:26:03.943Z,-2.51
2023-04-02T03:28:35.923Z,-2.50
2023-04-02T03:31:07.359Z,-2.58
2023-04-02T03:33:40.410Z,-2.56
2023-04-02T03:36:19.003Z,-2.60
2023-04-02T03:38:49.904Z,-2.65
2023-04-02T03:41:21.211Z,-2.56
2023-04-02T03:43:53.773Z,-2.66
2023-04-02T03:46:27.739Z,-2.63
2023-04-02T03:49:00.543Z,-2.76
2023-04-02T03:51:32.268Z,-2.72
2023-04-02T03:54:05.201Z,-2.70
2023-04-02T03:56:40.171Z,-2.70
2023-04-02T03:59:16.886Z,-2.71
2023-04-02T04:01:49.414Z,-2.77
2023-04-02T04:04:21.022Z,-2.76
2023-04-02T04:06:52.580Z,-2.84
2023-04-02T04:09:25.670Z,-2.75
2023-04-02T04:11:56.493Z,-2.76
2023-04-02T04:14:30.125Z,-2.81
2023-04-02T04:17:04.661Z,-2.84
2023-04-02T04:19:40.864Z,-2.79
2023-04-02T04:22:11.328Z,-2.66
2023-04-02T04:24:40.213Z,-2.72
2023-04-02T04:27:14.646Z,-2.76
2023-04-02T04:29:49.472Z,-2.72
2023-04-02T04:32:27.842Z,-2.70
2023-04-02T04:35:04.335Z,-2.68
2023-04-02T04:37:35.429Z,-2.56
2023-04-02T04:40:12.133Z,-2.58
2023-04-02T04:42:44.350Z,-2.60
2023-04-02T04:45:20.306Z,-2.64
2023-04-02T04:47:51.941Z,-2.60
2023-04-02T04:50:26.571Z,-2.61
2023-04-02T04:52:55.448Z,-2.53
2023-04-02T04:55:27.981Z,-2.58
2023-04-02T04:58:04.214Z,-2.58
2023-04-02T05:00:43.565Z,-2.57
2023-04-02T05:03:17.594Z,-2.52
2023-04-02T05:05:47.872Z,-2.50
2023-04-02T05:08:21.064Z,-2.49
2023-04-02T05:10:52.255Z,-2.41
2023-04-02T05:13:24.154Z,-2.33
2023-04-02T05:15:56.425Z,-2.36
2023-04-02T05:18:27.856Z,-2.20
2023-04-02T05:21:02.454Z,-2.20
2023-04-02T05:23:32.855Z,-2.22
2023-04-02T05:26:05.355Z,-2.17
2023-04-02T05:28:40.181Z,-2.04
2023-04-02T05:31:12.535Z,-2.01
2023-04-02T05:33:46.155Z,-1.89
2023-04-02T05:36:21.841Z,-1.88
2023-04-02T05:38:54.844Z,-1.81
2023-04-02T05:41:32.500Z,-1.77
2023-04-02T05:44:08.180Z,-1.72
2023-04-02T05:46:38.454Z,-1.67
2023-04-02T05:49:11.394Z,-1.67
2023-04-02T05:51:44.639Z,-1.60
2023-04-02T05:54:23.440Z,-1.59
2023-04-02T05:56:58.983Z,-1.45
2023-04-02T05:59:30.861Z,-1.44
2023-04-02T06:02:03.654Z,-1.41
2023-04-02T06:04:44.155Z,-1.36
2023-04-02T06:07:17.172Z,-1.26
2023-04-02T06:09:52.615Z,-1.15
2023-04-02T06:12:26.110Z,-1.13
2023-04-02T06:14:58.123Z,-1.10
2023-04-02T06:17:29.748Z,-1.00
2023-04-02T06:20:00.662Z,-0.96
2023-04-02T06:22:34.083Z,-0.98
2023-04-02T06:25:05.086Z,-0.88
2023-04-02T06:27:40.954Z,-0.83
2023-04-02T06:30:18.006Z,-0.82
2023-04-02T06:32:48.912Z,-0.84
2023-04-02T06:35:19.292Z,-0.71
2023-04-02T06:38:01.109Z,-0.63
2023-04-02T06:40:40.010Z,-0.57
2023-04-02T06:43:18.266Z,-0.59
2023-04-02T06:46:08.642Z,-0.49
2023-04-02T06:48:59.582Z,-0.41
2023-04-02T06:51:29.164Z,-0.32
2023-04-02T06:53:59.040Z,-0.27
2023-04-02T06:56:33.277Z,-0.07
2023-04-02T06:59:04.671Z,-0.08
2023-04-02T07:01:36.283Z,-0.09
2023-04-02T07:04:05.136Z,0.09
2023-04-02T07:06:38.815Z,-0.01
2023-04-02T07:09:10.715Z,0.01
2023-04-02T07:11:42.713Z,0.11
2023-04-02T07:14:13.480Z,0.13
2023-04-02T07:16:43.595Z,0.32
2023-04-02T07:19:17.524Z,0.27
2023-04-02T07:21:47.222Z,0.25
2023-04-02T07:24:17.158Z,0.23
2023-04-02T07:26:47.906Z,0.29
2023-04-02T07:29:17.566Z,0.36
2023-04-02T07:31:46.386Z,0.32
2023-04-02T07:34:14.960Z,0.42
2023-04-02T07:36:43.513Z,0.45
2023-04-02T07:39:12.394Z,0.49
2023-04-02T07:41:55.253Z,0.42
2023-04-02T07:44:23.885Z,0.53
2023-04-02T07:46:52.361Z,0.41
2023-04-02T07:49:20.823Z,0.44
2023-04-02T07:51:49.136Z,0.53
2023-04-02T07:54:17.522Z,0.57
2023-04-02T07:56:45.924Z,0.60
2023-04-02T07:59:16.074Z,0.30
2023-04-02T08:01:44.584Z,0.54
2023-04-02T08:04:18.832Z,0.51
2023-04-02T08:06:47.611Z,0.51
2023-04-02T08:09:16.120Z,0.59
2023-04-02T08:11:44.631Z,0.53
2023-04-02T08:14:13.014Z,0.61
2023-04-02T08:16:50.489Z,0.64
2023-04-02T08:19:19.249Z,0.30
2023-04-02T08:21:50.213Z,0.30
2023-04-02T08:24:19.592Z,0.21
2023-04-02T08:26:47.776Z,0.24
2023-04-02T08:29:16.518Z,0.31
2023-04-02T08:31:45.255Z,0.42
2023-04-02T08:34:18.013Z,0.55
2023-04-02T08:36:49.113Z,0.85
2023-04-02T08:39:21.237Z,0.96
2023-04-02T08:41:57.896Z,1.08
2023-04-02T08:44:33.756Z,1.00
2023-04-02T08:47:04.530Z,0.89
2023-04-02T08:49:37.398Z,0.89
2023-04-02T08:52:05.692Z,0.85
2023-04-02T08:54:35.362Z,1.05
2023-04-02T08:57:07.194Z,1.02
2023-04-02T08:59:36.380Z,1.12
2023-04-02T09:02:11.568Z,0.93
2023-04-02T09:04:42.030Z,0.99
2023-04-02T09:07:13.705Z,1.05
2023-04-02T09:09:42.319Z,1.23
2023-04-02T09:12:18.057Z,1.27
2023-04-02T09:14:47.615Z,1.31
2023-04-02T09:17:19.099Z,1.58
2023-04-02T09:19:53.656Z,1.99
2023-04-02T09:22:23.064Z,2.05
2023-04-02T09:24:53.350Z,2.05
2023-04-02T09:27:23.484Z,1.61
2023-04-02T09:29:54.616Z,1.48
2023-04-02T09:32:37.654Z,1.16
2023-04-02T09:35:36.606Z,1.53
2023-04-02T09:38:21.829Z,1.52
2023-04-02T09:40:53.305Z,1.66
2023-04-02T09:43:22.430Z,1.72
2023-04-02T09:46:01.259Z,1.55
2023-04-02T09:48:32.713Z,1.56
2023-04-02T09:51:09.949Z,1.61
2023-04-02T09:53:42.410Z,1.87
2023-04-02T09:56:13.023Z,1.71
2023-04-02T09:58:42.648Z,1.80
2023-04-02T10:01:45.672Z,1.76
2023-04-02T10:04:28.772Z,1.98
2023-04-02T10:06:58.542Z,1.82
2023-04-02T10:09:30.924Z,2.09
2023-04-02T10:12:00.886Z,2.38
2023-04-02T10:14:30.266Z,2.38
2023-04-02T10:16:59.978Z,2.21
2023-04-02T10:19:30.986Z,2.04
2023-04-02T10:22:02.152Z,2.31
2023-04-02T10:24:31.944Z,2.40
2023-04-02T10:27:04.880Z,2.32
2023-04-02T10:30:02.788Z,2.39
2023-04-02T10:32:33.734Z,2.36
2023-04-02T10:35:03.727Z,2.38
2023-04-02T10:37:46.439Z,2.30
2023-04-02T10:40:20.053Z,2.38
2023-04-02T10:42:54.286Z,2.51
2023-04-02T10:45:31.948Z,2.50
2023-04-02T10:48:03.997Z,2.43
2023-04-02T10:50:36.226Z,2.44
2023-04-02T10:53:09.209Z,2.60
2023-04-02T10:55:43.430Z,2.62
2023-04-02T10:58:20.317Z,2.30
2023-04-02T11:00:49.167Z,2.48
2023-04-02T11:03:20.404Z,2.32
2023-04-02T11:05:49.255Z,2.56
2023-04-02T11:08:19.334Z,2.56
2023-04-02T11:10:50.589Z,2.40
2023-04-02T11:13:21.908Z,2.31
2023-04-02T11:15:50.375Z,2.51
2023-04-02T11:18:23.965Z,2.53
2023-04-02T11:21:00.793Z,2.40
2023-04-02T11:23:30.886Z,2.63
2023-04-02T11:26:13.847Z,2.42
2023-04-02T11:28:43.945Z,2.51
2023-04-02T11:31:21.209Z,2.43
2023-04-02T11:33:50.144Z,2.48
2023-04-02T11:36:36.917Z,2.56
2023-04-02T11:39:15.108Z,2.58
2023-04-02T11:42:04.333Z,2.61
2023-04-02T11:44:34.106Z,2.58
2023-04-02T11:47:18.998Z,2.68
2023-04-02T11:50:03.130Z,2.49
2023-04-02T11:52:39.464Z,2.30
2023-04-02T11:55:22.639Z,2.32
2023-04-02T11:57:57.141Z,2.25
2023-04-02T12:00:32.067Z,2.35
2023-04-02T12:03:19.153Z,2.47
2023-04-02T12:05:51.245Z,2.30
2023-04-02T12:08:25.229Z,2.48
2023-04-02T12:10:59.998Z,2.65
2023-04-02T12:13:46.671Z,2.58
2023-04-02T12:16:18.463Z,2.54
2023-04-02T12:18:48.455Z,2.36
2023-04-02T12:21:17.905Z,2.21
2023-04-02T12:23:47.444Z,2.47
2023-04-02T12:26:30.427Z,2.43
2023-04-02T12:29:13.544Z,2.41
2023-04-02T12:31:46.182Z,2.30
2023-04-02T12:34:15.971Z,2.50
2023-04-02T12:36:53.051Z,2.30
2023-04-02T12:39:21.681Z,2.06
2023-04-02T12:41:50.084Z,2.07
2023-04-02T12:44:18.993Z,2.14
2023-04-02T12:46:49.446Z,2.11
2023-04-02T12:49:32.501Z,2.22
2023-04-02T12:52:03.409Z,2.04
2023-04-02T12:54:34.684Z,1.92
2023-04-02T12:57:18.145Z,1.99
2023-04-02T12:59:46.605Z,1.90
2023-04-02T13:02:20.906Z,1.93
2023-04-02T13:04:49.987Z,2.05
2023-04-02T13:07:19.236Z,2.01
2023-04-02T13:09:48.392Z,2.01
2023-04-02T13:12:32.945Z,1.96
2023-04-02T13:15:02.246Z,1.83
2023-04-02T13:17:45.876Z,1.84
2023-04-02T13:20:34.306Z,1.88
2023-04-02T13:23:04.405Z,1.88
2023-04-02T13:25:33.616Z,2.11
2023-04-02T13:28:01.874Z,2.07
2023-04-02T13:30:30.869Z,2.19
2023-04-02T13:33:00.991Z,2.19
2023-04-02T13:35:29.310Z,2.10
2023-04-02T13:37:57.760Z,2.21
2023-04-02T13:40:26.107Z,2.21
2023-04-02T13:42:54.324Z,2.07
2023-04-02T13:45:25.669Z,1.77
2023-04-02T13:47:54.104Z,1.65
2023-04-02T13:50:24.504Z,1.85
2023-04-02T13:52:53.253Z,1.61
2023-04-02T13:55:23.247Z,1.58
2023-04-02T13:57:51.853Z,1.38
2023-04-02T14:00:21.579Z,1.15
2023-04-02T14:02:51.772Z,1.39
2023-04-02T14:05:29.097Z,1.45
2023-04-02T14:08:03.879Z,1.58
2023-04-02T14:10:41.298Z,1.46
2023-04-02T14:13:18.790Z,1.23
2023-04-02T14:15:54.613Z,1.07
2023-04-02T14:18:32.111Z,1.07
2023-04-02T14:21:07.193Z,1.17
2023-04-02T14:23:45.575Z,1.42
2023-04-02T14:26:18.737Z,1.71
2023-04-02T14:28:57.586Z,1.79
2023-04-02T14:31:31.825Z,1.72
2023-04-02T14:34:03.894Z,1.61
2023-04-02T14:36:42.730Z,1.58
2023-04-02T14:39:15.616Z,1.45
2023-04-02T14:41:46.083Z,1.32
2023-04-02T14:44:14.628Z,1.37
2023-04-02T14:46:42.861Z,1.23
2023-04-02T14:49:19.435Z,1.22
2023-04-02T14:51:51.158Z,1.31
2023-04-02T14:54:22.360Z,1.19
2023-04-02T14:56:53.460Z,1.23
2023-04-02T14:59:33.181Z,1.15
2023-04-02T15:02:03.746Z,1.07
2023-04-02T15:04:34.528Z,1.00
2023-04-02T15:07:06.602Z,0.99
2023-04-02T15:09:37.240Z,0.89
2023-04-02T15:12:09.791Z,0.91
2023-04-02T15:14:40.746Z,0.93
2023-04-02T15:17:11.747Z,0.85
2023-04-02T15:19:40.261Z,0.82
2023-04-02T15:22:20.780Z,0.78
2023-04-02T15:24:54.442Z,0.79
2023-04-02T15:27:27.351Z,0.71
2023-04-02T15:30:02.064Z,0.57
2023-04-02T15:32:37.068Z,0.45
2023-04-02T15:35:11.685Z,0.57
2023-04-02T15:37:44.144Z,0.48
2023-04-02T15:40:29.805Z,0.42
2023-04-02T15:43:02.332Z,0.38
2023-04-02T15:45:44.594Z,0.46
2023-04-02T15:48:34.104Z,0.42
2023-04-02T15:51:13.545Z,0.24
2023-04-02T15:53:50.166Z,0.21
2023-04-02T15:56:32.344Z,0.15
2023-04-02T15:59:21.625Z,0.15
2023-04-02T16:01:54.405Z,0.04
2023-04-02T16:04:40.062Z,0.08
2023-04-02T16:07:20.698Z,-0.01
2023-04-02T16:09:54.892Z,-0.02
2023-04-02T16:12:23.412Z,-0.07
2023-04-02T16:14:51.949Z,-0.05
2023-04-02T16:17:25.267Z,-0.02
2023-04-02T16:19:56.366Z,-0.01
2023-04-02T16:22:27.994Z,0.03
2023-04-02T16:25:01.772Z,0.00
2023-04-02T16:27:33.220Z,-0.12
2023-04-02T16:30:19.514Z,-0.04
2023-04-02T16:33:11.846Z,-0.33
2023-04-02T16:35:45.673Z,-0.28
2023-04-02T16:38:22.757Z,-0.47
2023-04-02T16:41:06.971Z,-0.56
2023-04-02T16:43:42.049Z,-0.70
2023-04-02T16:46:14.878Z,-0.73
2023-04-02T16:48:48.540Z,-0.83
2023-04-02T16:51:21.381Z,-0.84
2023-04-02T16:54:01.601Z,-0.95
2023-04-02T16:56:49.789Z,-0.97
2023-04-02T16:59:21.233Z,-0.88
2023-04-02T17:01:54.380Z,-1.13
2023-04-02T17:04:32.387Z,-1.14
2023-04-02T17:07:06.869Z,-1.11
2023-04-02T17:09:41.085Z,-1.17
2023-04-02T17:12:16.457Z,-1.10
2023-04-02T17:14:46.852Z,-1.15
2023-04-02T17:17:16.207Z,-1.27
2023-04-02T17:19:45.067Z,-1.34
2023-04-02T17:22:17.125Z,-1.32
2023-04-02T17:24:47.391Z,-1.43
2023-04-02T17:27:20.887Z,-1.41
2023-04-02T17:29:50.364Z,-1.49
2023-04-02T17:32:23.006Z,-1.47
2023-04-02T17:34:51.353Z,-1.44
2023-04-02T17:37:23.074Z,-1.46
2023-04-02T17:39:57.614Z,-1.57
2023-04-02T17:42:34.884Z,-1.46
2023-04-02T17:45:06.273Z,-1.54
2023-04-02T17:47:44.004Z,-1.58
2023-04-02T17:50:34.756Z,-1.62
2023-04-02T17:53:09.320Z,-1.73
2023-04-02T17:55:43.740Z,-1.76
2023-04-02T17:58:21.441Z,-1.69
2023-04-02T18:00:56.774Z,-1.62
2023-04-02T18:03:38.029Z,-1.84
2023-04-02T18:06:10.161Z,-1.86
2023-04-02T18:08:45.741Z,-1.78
2023-04-02T18:11:15.761Z,-1.85
2023-04-02T18:13:51.426Z,-1.93
2023-04-02T18:16:31.126Z,-2.01
2023-04-02T18:19:06.244Z,-1.89
2023-04-02T18:21:38.975Z,-1.89
2023-04-02T18:24:29.247Z,-1.82
2023-04-02T18:27:04.640Z,-1.88
2023-04-02T18:29:40.449Z,-1.98
2023-04-02T18:32:16.777Z,-2.00
2023-04-02T18:34:54.017Z,-2.04
2023-04-02T18:37:25.959Z,-2.05
2023-04-02T18:40:05.234Z,-2.01
2023-04-02T18:42:42.558Z,-2.01
2023-04-02T18:45:18.296Z,-2.10
2023-04-02T18:47:50.553Z,-2.09
2023-04-02T18:50:24.447Z,-2.14
2023-04-02T18:52:52.818Z,-2.13
2023-04-02T18:55:22.146Z,-2.21
2023-04-02T18:57:52.860Z,-2.21
2023-04-02T19:00:26.853Z,-2.30
2023-04-02T19:02:58.619Z,-2.34
2023-04-02T19:05:32.521Z,-2.32
2023-04-02T19:08:03.784Z,-2.34
2023-04-02T19:10:33.214Z,-2.22
2023-04-02T19:13:01.767Z,-2.23
2023-04-02T19:15:37.785Z,-2.36
2023-04-02T19:18:11.823Z,-2.41
2023-04-02T19:20:45.462Z,-2.48
2023-04-02T19:23:20.660Z,-2.49
2023-04-02T19:25:58.698Z,-2.53
2023-04-02T19:28:31.379Z,-2.62
2023-04-02T19:31:12.512Z,-2.60
2023-04-02T19:33:47.161Z,-2.63
2023-04-02T19:36:22.465Z,-2.68
2023-04-02T19:38:59.139Z,-2.75
2023-04-02T19:41:30.868Z,-2.75
2023-04-02T19:43:59.471Z,-2.77
2023-04-02T19:46:29.465Z,-2.76
2023-04-02T19:49:03.392Z,-2.70
2023-04-02T19:51:31.753Z,-2.79
2023-04-02T19:54:00.015Z,-2.82
2023-04-02T19:56:28.351Z,-2.83
2023-04-02T19:58:58.168Z,-2.79
2023-04-02T20:01:26.545Z,-2.89
2023-04-02T20:03:56.290Z,-2.85
2023-04-02T20:06:24.507Z,-2.83
2023-04-02T20:08:52.827Z,-2.83
2023-04-02T20:11:21.140Z,-2.87
2023-04-02T20:13:50.354Z,-2.94
2023-04-02T20:16:18.661Z,-2.90
2023-04-02T20:18:46.931Z,-2.95
2023-04-02T20:21:16.966Z,-2.90
2023-04-02T20:23:45.085Z,-2.90
2023-04-02T20:26:13.867Z,-2.94
2023-04-02T20:28:42.067Z,-2.95
2023-04-02T20:31:11.416Z,-3.04
2023-04-02T20:33:40.233Z,-2.99
2023-04-02T20:36:09.677Z,-3.05
2023-04-02T20:38:39.460Z,-2.99
2023-04-02T20:41:08.517Z,-3.01
2023-04-02T20:43:37.718Z,-3.06
2023-04-02T20:46:09.508Z,-3.05
2023-04-02T20:48:39.666Z,-3.06
2023-04-02T20:51:09.603Z,-3.06
2023-04-02T20:53:39.514Z,-3.10
2023-04-02T20:56:08.835Z,-3.11
2023-04-02T20:58:37.554Z,-3.05
2023-04-02T21:01:10.366Z,-2.95
2023-04-02T21:03:40.240Z,-2.98
2023-04-02T21:06:09.075Z,-2.99
2023-04-02T21:08:37.359Z,-3.00
2023-04-02T21:11:07.557Z,-3.04
2023-04-02T21:13:37.099Z,-2.89
2023-04-02T21:16:06.013Z,-2.95
2023-04-02T21:18:34.295Z,-3.03
2023-04-02T21:21:03.916Z,-3.03
2023-04-02T21:23:32.835Z,-2.90
2023-04-02T21:26:02.575Z,-3.00
2023-04-02T21:28:32.322Z,-3.06
2023-04-02T21:31:04.165Z,-2.90
2023-04-02T21:33:33.456Z,-2.98
2023-04-02T21:36:06.562Z,-3.07
2023-04-02T21:38:35.065Z,-2.95
2023-04-02T21:41:16.837Z,-3.05
2023-04-02T21:43:48.661Z,-3.10
2023-04-02T21:46:17.274Z,-3.06
2023-04-02T21:48:45.922Z,-3.01
2023-04-02T21:51:15.629Z,-2.95
2023-04-02T21:53:44.405Z,-3.09
2023-04-02T21:56:13.827Z,-2.98
2023-04-02T21:58:43.524Z,-3.00
2023-04-02T22:01:26.151Z,-3.04
2023-04-02T22:03:57.295Z,-3.05
2023-04-02T22:06:26.448Z,-3.09
2023-04-02T22:08:56.472Z,-3.14
2023-04-02T22:11:26.267Z,-3.13
2023-04-02T22:13:54.827Z,-3.11
2023-04-02T22:16:26.004Z,-3.07
2023-04-02T22:18:55.827Z,-3.09
2023-04-02T22:21:24.154Z,-3.16
2023-04-02T22:23:52.743Z,-3.08
2023-04-02T22:26:23.103Z,-3.18
2023-04-02T22:28:52.863Z,-3.15
2023-04-02T22:31:23.106Z,-3.17
2023-04-02T22:33:53.664Z,-3.14
2023-04-02T22:36:22.337Z,-3.16
2023-04-02T22:38:51.248Z,-3.20
2023-04-02T22:41:21.582Z,-3.20
2023-04-02T22:43:49.891Z,-3.11
2023-04-02T22:46:19.068Z,-3.26
2023-04-02T22:48:48.286Z,-3.15
2023-04-02T22:51:19.006Z,-3.21
2023-04-02T22:53:47.721Z,-3.22
2023-04-02T22:56:16.825Z,-3.20
2023-04-02T22:58:45.746Z,-3.25
2023-04-02T23:01:15.186Z,-3.25
2023-04-02T23:03:43.469Z,-3.29
2023-04-02T23:06:12.519Z,-3.13
2023-04-02T23:08:42.652Z,-3.11
2023-04-02T23:11:12.022Z,-3.20
2023-04-02T23:13:41.298Z,-3.34
2023-04-02T23:16:12.527Z,-3.29
2023-04-02T23:18:41.444Z,-3.31
2023-04-02T23:21:10.067Z,-3.36
2023-04-02T23:23:39.161Z,-3.32
2023-04-02T23:26:10.169Z,-3.35
2023-04-02T23:28:38.956Z,-3.38
2023-04-02T23:31:07.909Z,-3.42
2023-04-02T23:33:36.377Z,-3.37
2023-04-02T23:36:07.866Z,-3.38
2023-04-02T23:38:36.265Z,-3.40
2023-04-02T23:41:04.478Z,-3.41
2023-04-02T23:43:34.205Z,-3.46
2023-04-02T23:46:02.551Z,-3.52
2023-04-02T23:48:30.761Z,-3.45
2023-04-02T23:50:58.959Z,-3.40
2023-04-02T23:53:27.141Z,-3.41
2023-04-02T23:55:55.427Z,-3.45
2023-04-02T23:58:23.731Z,-3.37
